East Danville, Ohio
Current Conditions -  °F | °C
As of 4:54 AM on Sunday 23 Nov 2014 (Local Time) from KILN Reporting Station
Overcast Overcast  
Wind Chill: 44°   Ceiling: 4800
Heat Index: 48°   Visibility: 10mi
Dew Point: 35°   Wind: 9mph
Humidity: 61%   Direction: 190°S
Pressure: 30.03"   Gusts: NA
Location:  39.1546°N, 83.569°W
Report Text: KILN 230954Z AUTO 19008KT 10SM OVC048 09/02 A3003 RMK AO2 SLP177 T00890017
Loading
Personal Weather Stations






























Interactive Weather Map New forecast layout! Learn more

10-Day Weather Forecast

Advertisements
Track Severe Weather on mobile